Breckenridge, CO

6:26 PM MDT on April 01, 2015 (GMT -0600)
Blue River | | Change Station
CLOSE
Current Station
Personal Weather Station
Location: Breckenridge, CO
Elevation: 10525 ft
Nearby Weather Stations

Elev 10525 ft 39.39 °N, 106.05 °W | Updated 14 minutes ago

Mostly Cloudy
Mostly Cloudy
38.0 °F
Feels Like 38 °F
N
1.0
Wind Variable Wind from SSE
Gusts 11.0 mph

Today
High -- | Low -- °F
--% Chance of Precip.
Yesterday
High -- | Low -- °F
Precip. -- in
6:48 AM 7:27 PM
Waxing Gibbous, 94% visible
Pressure 29.99 in
Visibility 10.0 miles
Clouds Scattered Clouds 4800 ft
Scattered Clouds 6000 ft
Windchill 38 °F
Dew Point 18 °F
Humidity 45%
Rainfall 0.00 in
Snow Depth Not available.
UV 1 out of 12
Pollen 11.10 out of 12
Air Quality Not available.
Flu Activity Not available.
METAR KLXV 012353Z AUTO 16006KT 10SM SCT048 SCT060 03/M06 A2999 RMK AO2 SLPNO 60000 T00331056 10083 21006 50001

More Conditions Fewer Conditions

Pressure 29.99 in
Visibility 10.0 miles
Clouds Scattered Clouds 4800 ft
Scattered Clouds 6000 ft
Windchill 38 °F
Dew Point 18 °F
Humidity 45%
Rainfall 0.00 in
Snow Depth Not available.
UV 1 out of 12
Pollen 11.10 out of 12
Air Quality Not available.
Flu Activity Not available.
METAR KLXV 012353Z AUTO 16006KT 10SM SCT048 SCT060 03/M06 A2999 RMK AO2 SLPNO 60000 T00331056 10083 21006 50001

More Conditions Fewer Conditions

Nowcast | as of 5:54 PM MDT on April 1, 2015

Scattered rain showers and isolated thunderstorms will move across the the Front Range mountains through the early evening. The snow level will be around 12 thousand feet. The storms will produce brief light to moderate rainfall...up to a tenth of an inch...wind gusts to 45 mph and cloud to ground lightning.

×

10-Day Weather Forecast

Almanac

Astronomy

Apr. 01, 2015 Rise Set
Actual Time
Civil Twilight
Nautical Twilight
Astronomical Twilight
Moon
Length of Visible Light
Length of Day
Tomorrow will be .
, % of the Moon is Illuminated

Today's Extremes

State Highs State Lows

Community

WunderPhotos

Upload Photos

1,810,130 photos uploaded!

WunderBlogs® & News

Nearby

Air Quality

  Air Quality AQ Index Pollutant
Not available.

Snow Depth

Station Depth Elevation

Earthquake Activity

City Distance Mag. Time & Date
Minimum magnitude displayed is 2.5.

Coastal Water Temperatures

Place Temperature

Stations

Nearby Weather Stations

Station Location Temp. Windchill Dew Point Humidity Wind Precip. Elev Updated Type